sensor_id;sensor_type;location;lat;lon;timestamp;P1;durP1;ratioP1;P2;durP2;ratioP2
25649;SDS011;13505;45.196;5.696;2022-08-03T04:02:11;3.38;;;1.77;;
25649;SDS011;13505;45.196;5.696;2022-08-03T04:07:01;2.20;;;2.00;;
25649;SDS011;13505;45.196;5.696;2022-08-03T04:12:10;3.58;;;1.80;;
25649;SDS011;13505;45.196;5.696;2022-08-03T04:17:02;3.95;;;2.00;;
25649;SDS011;13505;45.196;5.696;2022-08-03T04:21:55;2.65;;;1.92;;
25649;SDS011;13505;45.196;5.696;2022-08-03T04:26:49;3.55;;;1.80;;
25649;SDS011;13505;45.196;5.696;2022-08-03T04:31:41;3.38;;;2.00;;
25649;SDS011;13505;45.196;5.696;2022-08-03T04:36:34;4.28;;;1.80;;
25649;SDS011;13505;45.196;5.696;2022-08-03T04:41:29;3.40;;;1.77;;
25649;SDS011;13505;45.196;5.696;2022-08-03T04:46:21;2.15;;;1.90;;
25649;SDS011;13505;45.196;5.696;2022-08-03T04:51:14;4.03;;;1.70;;
25649;SDS011;13505;45.196;5.696;2022-08-03T04:56:06;2.60;;;1.90;;
25649;SDS011;13505;45.196;5.696;2022-08-03T05:00:56;2.03;;;1.70;;
25649;SDS011;13505;45.196;5.696;2022-08-03T05:05:47;4.30;;;1.60;;
25649;SDS011;13505;45.196;5.696;2022-08-03T05:10:37;3.97;;;1.80;;
25649;SDS011;13505;45.196;5.696;2022-08-03T05:15:27;3.50;;;1.75;;
25649;SDS011;13505;45.196;5.696;2022-08-03T05:20:18;4.75;;;1.67;;
25649;SDS011;13505;45.196;5.696;2022-08-03T05:25:08;4.07;;;1.93;;
25649;SDS011;13505;45.196;5.696;2022-08-03T05:29:58;3.33;;;1.80;;
25649;SDS011;13505;45.196;5.696;2022-08-03T05:34:49;8.90;;;1.90;;
25649;SDS011;13505;45.196;5.696;2022-08-03T05:39:39;6.53;;;3.40;;
25649;SDS011;13505;45.196;5.696;2022-08-03T05:44:29;11.23;;;2.95;;
25649;SDS011;13505;45.196;5.696;2022-08-03T05:49:20;4.35;;;2.90;;
25649;SDS011;13505;45.196;5.696;2022-08-03T05:54:11;5.27;;;2.47;;
25649;SDS011;13505;45.196;5.696;2022-08-03T05:59:02;7.70;;;3.03;;
25649;SDS011;13505;45.196;5.696;2022-08-03T06:03:53;7.38;;;2.78;;
25649;SDS011;13505;45.196;5.696;2022-08-03T06:08:43;6.43;;;2.70;;
25649;SDS011;13505;45.196;5.696;2022-08-03T06:13:34;6.28;;;3.13;;
25649;SDS011;13505;45.196;5.696;2022-08-03T06:18:25;7.95;;;3.55;;
25649;SDS011;13505;45.196;5.696;2022-08-03T06:23:15;6.35;;;3.40;;
25649;SDS011;13505;45.196;5.696;2022-08-03T06:28:06;9.02;;;3.30;;
25649;SDS011;13505;45.196;5.696;2022-08-03T06:32:56;7.00;;;3.47;;
25649;SDS011;13505;45.196;5.696;2022-08-03T06:37:48;9.63;;;3.87;;
25649;SDS011;13505;45.196;5.696;2022-08-03T06:42:39;6.47;;;4.20;;
25649;SDS011;13505;45.196;5.696;2022-08-03T06:47:30;14.23;;;4.10;;
25649;SDS011;13505;45.196;5.696;2022-08-03T06:52:20;10.97;;;3.67;;
25649;SDS011;13505;45.196;5.696;2022-08-03T06:57:11;13.10;;;3.40;;
25649;SDS011;13505;45.196;5.696;2022-08-03T07:02:02;10.98;;;4.00;;
25649;SDS011;13505;45.196;5.696;2022-08-03T07:06:52;7.18;;;3.55;;
25649;SDS011;13505;45.196;5.696;2022-08-03T07:11:44;7.38;;;3.47;;
25649;SDS011;13505;45.196;5.696;2022-08-03T07:16:34;6.60;;;3.53;;
25649;SDS011;13505;45.196;5.696;2022-08-03T07:21:24;7.13;;;3.50;;
25649;SDS011;13505;45.196;5.696;2022-08-03T07:26:15;7.40;;;3.40;;
25649;SDS011;13505;45.196;5.696;2022-08-03T07:31:05;4.93;;;3.20;;
25649;SDS011;13505;45.196;5.696;2022-08-03T07:35:55;4.30;;;2.80;;
25649;SDS011;13505;45.196;5.696;2022-08-03T07:40:46;3.23;;;2.57;;
25649;SDS011;13505;45.196;5.696;2022-08-03T07:45:36;5.50;;;3.22;;
25649;SDS011;13505;45.196;5.696;2022-08-03T07:50:27;5.27;;;2.90;;
25649;SDS011;13505;45.196;5.696;2022-08-03T07:55:18;4.97;;;2.85;;
25649;SDS011;13505;45.196;5.696;2022-08-03T08:00:12;7.60;;;2.85;;
25649;SDS011;13505;45.196;5.696;2022-08-03T08:05:05;6.70;;;2.85;;
25649;SDS011;13505;45.196;5.696;2022-08-03T08:09:56;6.03;;;2.88;;
25649;SDS011;13505;45.196;5.696;2022-08-03T08:14:47;4.40;;;2.93;;
25649;SDS011;13505;45.196;5.696;2022-08-03T08:19:37;4.03;;;3.23;;
25649;SDS011;13505;45.196;5.696;2022-08-03T08:24:27;14.53;;;3.63;;
25649;SDS011;13505;45.196;5.696;2022-08-03T08:29:19;5.15;;;3.00;;
25649;SDS011;13505;45.196;5.696;2022-08-03T08:34:12;7.50;;;2.97;;
25649;SDS011;13505;45.196;5.696;2022-08-03T08:39:02;3.80;;;2.77;;
25649;SDS011;13505;45.196;5.696;2022-08-03T08:43:52;3.88;;;2.88;;
25649;SDS011;13505;45.196;5.696;2022-08-03T08:48:44;5.65;;;3.00;;
25649;SDS011;13505;45.196;5.696;2022-08-03T08:53:36;9.07;;;2.88;;
25649;SDS011;13505;45.196;5.696;2022-08-03T08:58:34;4.68;;;2.92;;
25649;SDS011;13505;45.196;5.696;2022-08-03T09:03:26;4.88;;;3.35;;
25649;SDS011;13505;45.196;5.696;2022-08-03T09:08:17;7.32;;;3.10;;
25649;SDS011;13505;45.196;5.696;2022-08-03T09:13:07;4.30;;;3.20;;
25649;SDS011;13505;45.196;5.696;2022-08-03T09:17:59;4.68;;;3.00;;
25649;SDS011;13505;45.196;5.696;2022-08-03T09:22:54;6.85;;;2.80;;
25649;SDS011;13505;45.196;5.696;2022-08-03T09:27:49;10.40;;;3.08;;
25649;SDS011;13505;45.196;5.696;2022-08-03T09:32:39;6.03;;;2.77;;
25649;SDS011;13505;45.196;5.696;2022-08-03T09:37:30;5.57;;;2.70;;
25649;SDS011;13505;45.196;5.696;2022-08-03T09:42:20;4.25;;;3.33;;
25649;SDS011;13505;45.196;5.696;2022-08-03T09:47:13;6.82;;;3.40;;
25649;SDS011;13505;45.196;5.696;2022-08-03T09:52:14;8.45;;;3.72;;
25649;SDS011;13505;45.196;5.696;2022-08-03T09:57:07;9.25;;;4.18;;
25649;SDS011;13505;45.196;5.696;2022-08-03T10:02:18;7.88;;;4.00;;
25649;SDS011;13505;45.196;5.696;2022-08-03T10:07:10;9.30;;;3.60;;
25649;SDS011;13505;45.196;5.696;2022-08-03T10:12:10;7.17;;;3.27;;
25649;SDS011;13505;45.196;5.696;2022-08-03T10:17:01;9.05;;;3.08;;
25649;SDS011;13505;45.196;5.696;2022-08-03T10:21:55;7.05;;;2.92;;
25649;SDS011;13505;45.196;5.696;2022-08-03T10:26:52;6.05;;;2.50;;
25649;SDS011;13505;45.196;5.696;2022-08-03T10:31:57;4.80;;;2.60;;
25649;SDS011;13505;45.196;5.696;2022-08-03T10:36:48;7.18;;;2.78;;
25649;SDS011;13505;45.196;5.696;2022-08-03T10:41:42;3.75;;;2.63;;
25649;SDS011;13505;45.196;5.696;2022-08-03T10:46:35;4.72;;;2.50;;
25649;SDS011;13505;45.196;5.696;2022-08-03T10:51:28;4.00;;;2.38;;
25649;SDS011;13505;45.196;5.696;2022-08-03T11:01:49;4.72;;;2.45;;
25649;SDS011;13505;45.196;5.696;2022-08-03T11:06:44;7.82;;;2.88;;
25649;SDS011;13505;45.196;5.696;2022-08-03T11:11:35;4.55;;;2.63;;
25649;SDS011;13505;45.196;5.696;2022-08-03T11:16:27;4.45;;;2.38;;
25649;SDS011;13505;45.196;5.696;2022-08-03T11:21:19;4.20;;;2.58;;
25649;SDS011;13505;45.196;5.696;2022-08-03T11:26:13;3.37;;;2.43;;
25649;SDS011;13505;45.196;5.696;2022-08-03T11:36:16;2.83;;;2.25;;
25649;SDS011;13505;45.196;5.696;2022-08-03T11:41:10;5.33;;;2.50;;
25649;SDS011;13505;45.196;5.696;2022-08-03T11:46:23;4.82;;;2.70;;
25649;SDS011;13505;45.196;5.696;2022-08-03T11:56:13;3.13;;;2.47;;
25649;SDS011;13505;45.196;5.696;2022-08-03T12:01:04;4.50;;;2.70;;
25649;SDS011;13505;45.196;5.696;2022-08-03T12:05:55;2.95;;;2.28;;
25649;SDS011;13505;45.196;5.696;2022-08-03T12:10:46;6.90;;;2.67;;
25649;SDS011;13505;45.196;5.696;2022-08-03T12:15:39;4.82;;;2.42;;
25649;SDS011;13505;45.196;5.696;2022-08-03T12:20:30;2.47;;;1.95;;
25649;SDS011;13505;45.196;5.696;2022-08-03T12:25:22;6.47;;;2.17;;
25649;SDS011;13505;45.196;5.696;2022-08-03T12:30:17;2.53;;;2.00;;
25649;SDS011;13505;45.196;5.696;2022-08-03T12:35:07;3.53;;;2.30;;
25649;SDS011;13505;45.196;5.696;2022-08-03T12:39:59;3.35;;;2.40;;
25649;SDS011;13505;45.196;5.696;2022-08-03T12:44:50;3.38;;;2.35;;
25649;SDS011;13505;45.196;5.696;2022-08-03T12:49:50;3.97;;;2.28;;
25649;SDS011;13505;45.196;5.696;2022-08-03T12:54:41;3.00;;;2.20;;
25649;SDS011;13505;45.196;5.696;2022-08-03T12:59:43;4.07;;;1.92;;
25649;SDS011;13505;45.196;5.696;2022-08-03T13:04:37;3.45;;;1.90;;
25649;SDS011;13505;45.196;5.696;2022-08-03T13:09:28;11.37;;;2.20;;
25649;SDS011;13505;45.196;5.696;2022-08-03T13:14:20;2.45;;;1.90;;
25649;SDS011;13505;45.196;5.696;2022-08-03T13:19:11;3.75;;;2.10;;
25649;SDS011;13505;45.196;5.696;2022-08-03T13:24:01;6.47;;;2.20;;
25649;SDS011;13505;45.196;5.696;2022-08-03T13:28:51;6.32;;;2.10;;
25649;SDS011;13505;45.196;5.696;2022-08-03T13:33:42;3.73;;;2.30;;
25649;SDS011;13505;45.196;5.696;2022-08-03T13:38:32;5.17;;;2.30;;
25649;SDS011;13505;45.196;5.696;2022-08-03T13:43:23;2.80;;;2.30;;
25649;SDS011;13505;45.196;5.696;2022-08-03T13:48:13;6.13;;;2.60;;
25649;SDS011;13505;45.196;5.696;2022-08-03T13:53:03;6.23;;;2.47;;
25649;SDS011;13505;45.196;5.696;2022-08-03T13:57:53;6.97;;;2.30;;
25649;SDS011;13505;45.196;5.696;2022-08-03T14:02:44;2.47;;;2.27;;
25649;SDS011;13505;45.196;5.696;2022-08-03T14:07:34;3.50;;;2.10;;
25649;SDS011;13505;45.196;5.696;2022-08-03T14:12:24;7.17;;;2.70;;
25649;SDS011;13505;45.196;5.696;2022-08-03T14:17:15;7.80;;;2.50;;
25649;SDS011;13505;45.196;5.696;2022-08-03T14:22:05;7.13;;;3.70;;
25649;SDS011;13505;45.196;5.696;2022-08-03T14:26:55;4.20;;;2.40;;
25649;SDS011;13505;45.196;5.696;2022-08-03T14:31:46;4.67;;;3.00;;
25649;SDS011;13505;45.196;5.696;2022-08-03T14:36:36;3.70;;;2.27;;
25649;SDS011;13505;45.196;5.696;2022-08-03T14:41:27;9.10;;;2.80;;
25649;SDS011;13505;45.196;5.696;2022-08-03T14:46:17;3.60;;;2.23;;
25649;SDS011;13505;45.196;5.696;2022-08-03T14:51:07;4.03;;;2.70;;
25649;SDS011;13505;45.196;5.696;2022-08-03T14:55:58;3.30;;;2.45;;
25649;SDS011;13505;45.196;5.696;2022-08-03T15:00:49;2.60;;;2.30;;
25649;SDS011;13505;45.196;5.696;2022-08-03T15:05:40;7.20;;;3.20;;
25649;SDS011;13505;45.196;5.696;2022-08-03T15:10:30;5.23;;;2.90;;
25649;SDS011;13505;45.196;5.696;2022-08-03T15:15:21;3.40;;;2.40;;
25649;SDS011;13505;45.196;5.696;2022-08-03T15:20:11;4.47;;;2.90;;
25649;SDS011;13505;45.196;5.696;2022-08-03T15:25:02;2.70;;;2.50;;
25649;SDS011;13505;45.196;5.696;2022-08-03T15:29:53;2.90;;;2.60;;
25649;SDS011;13505;45.196;5.696;2022-08-03T15:34:45;2.53;;;2.33;;
25649;SDS011;13505;45.196;5.696;2022-08-03T15:39:35;3.58;;;2.60;;
25649;SDS011;13505;45.196;5.696;2022-08-03T15:44:26;5.53;;;2.80;;
25649;SDS011;13505;45.196;5.696;2022-08-03T15:49:16;2.70;;;2.50;;
25649;SDS011;13505;45.196;5.696;2022-08-03T15:54:06;2.57;;;2.37;;
25649;SDS011;13505;45.196;5.696;2022-08-03T15:58:57;2.72;;;2.50;;
25649;SDS011;13505;45.196;5.696;2022-08-03T16:03:47;3.13;;;2.60;;
25649;SDS011;13505;45.196;5.696;2022-08-03T16:08:38;2.80;;;2.43;;
25649;SDS011;13505;45.196;5.696;2022-08-03T16:13:28;6.50;;;2.97;;
25649;SDS011;13505;45.196;5.696;2022-08-03T16:18:18;3.60;;;2.50;;
25649;SDS011;13505;45.196;5.696;2022-08-03T16:23:09;3.22;;;2.53;;
25649;SDS011;13505;45.196;5.696;2022-08-03T16:28:00;7.38;;;2.55;;
25649;SDS011;13505;45.196;5.696;2022-08-03T16:32:50;8.00;;;2.43;;
25649;SDS011;13505;45.196;5.696;2022-08-03T16:37:41;2.60;;;2.20;;
25649;SDS011;13505;45.196;5.696;2022-08-03T16:42:32;2.95;;;2.30;;
25649;SDS011;13505;45.196;5.696;2022-08-03T16:47:23;6.28;;;2.70;;
25649;SDS011;13505;45.196;5.696;2022-08-03T16:52:14;3.47;;;2.40;;
25649;SDS011;13505;45.196;5.696;2022-08-03T16:57:04;4.13;;;2.27;;
25649;SDS011;13505;45.196;5.696;2022-08-03T17:01:54;2.20;;;2.07;;
25649;SDS011;13505;45.196;5.696;2022-08-03T17:06:45;2.37;;;2.17;;
25649;SDS011;13505;45.196;5.696;2022-08-03T17:11:39;3.33;;;2.43;;
25649;SDS011;13505;45.196;5.696;2022-08-03T17:16:31;2.30;;;2.10;;
25649;SDS011;13505;45.196;5.696;2022-08-03T17:21:25;3.88;;;2.50;;
25649;SDS011;13505;45.196;5.696;2022-08-03T17:26:18;2.40;;;2.20;;
25649;SDS011;13505;45.196;5.696;2022-08-03T17:31:09;2.42;;;1.90;;
25649;SDS011;13505;45.196;5.696;2022-08-03T17:36:12;3.35;;;2.30;;
25649;SDS011;13505;45.196;5.696;2022-08-03T17:41:02;3.43;;;2.43;;
25649;SDS011;13505;45.196;5.696;2022-08-03T17:45:52;4.57;;;2.50;;
25649;SDS011;13505;45.196;5.696;2022-08-03T17:50:45;6.35;;;2.53;;
25649;SDS011;13505;45.196;5.696;2022-08-03T17:55:40;4.75;;;2.70;;
25649;SDS011;13505;45.196;5.696;2022-08-03T18:00:36;3.53;;;2.60;;
25649;SDS011;13505;45.196;5.696;2022-08-03T18:05:47;3.80;;;2.80;;
25649;SDS011;13505;45.196;5.696;2022-08-03T18:10:39;3.25;;;2.78;;
25649;SDS011;13505;45.196;5.696;2022-08-03T18:15:36;3.45;;;2.97;;
25649;SDS011;13505;45.196;5.696;2022-08-03T18:20:31;3.40;;;2.67;;
25649;SDS011;13505;45.196;5.696;2022-08-03T18:25:24;4.32;;;2.85;;
25649;SDS011;13505;45.196;5.696;2022-08-03T18:30:15;3.00;;;2.80;;
25649;SDS011;13505;45.196;5.696;2022-08-03T18:35:05;2.60;;;2.40;;
25649;SDS011;13505;45.196;5.696;2022-08-03T18:39:56;4.85;;;2.70;;
25649;SDS011;13505;45.196;5.696;2022-08-03T18:44:47;4.03;;;2.63;;
25649;SDS011;13505;45.196;5.696;2022-08-03T18:49:49;3.35;;;2.65;;
25649;SDS011;13505;45.196;5.696;2022-08-03T18:59:58;6.45;;;2.65;;
25649;SDS011;13505;45.196;5.696;2022-08-03T19:10:09;8.60;;;2.78;;
25649;SDS011;13505;45.196;5.696;2022-08-03T19:15:09;3.40;;;2.50;;
25649;SDS011;13505;45.196;5.696;2022-08-03T19:20:02;3.47;;;3.17;;
25649;SDS011;13505;45.196;5.696;2022-08-03T19:24:54;9.55;;;5.85;;
25649;SDS011;13505;45.196;5.696;2022-08-03T19:29:46;7.32;;;5.28;;
25649;SDS011;13505;45.196;5.696;2022-08-03T19:34:37;11.60;;;6.30;;
25649;SDS011;13505;45.196;5.696;2022-08-03T19:39:29;9.80;;;8.00;;
25649;SDS011;13505;45.196;5.696;2022-08-03T19:44:22;24.97;;;13.60;;
25649;SDS011;13505;45.196;5.696;2022-08-03T19:49:15;24.30;;;14.20;;
25649;SDS011;13505;45.196;5.696;2022-08-03T19:54:05;13.00;;;6.97;;
25649;SDS011;13505;45.196;5.696;2022-08-03T19:59:02;8.88;;;5.43;;
25649;SDS011;13505;45.196;5.696;2022-08-03T20:03:56;4.60;;;3.85;;
25649;SDS011;13505;45.196;5.696;2022-08-03T20:08:46;9.80;;;4.65;;
25649;SDS011;13505;45.196;5.696;2022-08-03T20:13:38;7.40;;;3.97;;
25649;SDS011;13505;45.196;5.696;2022-08-03T20:18:29;5.05;;;3.63;;
25649;SDS011;13505;45.196;5.696;2022-08-03T20:23:19;4.40;;;3.60;;
25649;SDS011;13505;45.196;5.696;2022-08-03T20:28:12;4.75;;;3.67;;
25649;SDS011;13505;45.196;5.696;2022-08-03T20:33:03;6.90;;;3.40;;
25649;SDS011;13505;45.196;5.696;2022-08-03T20:37:54;5.50;;;3.10;;
25649;SDS011;13505;45.196;5.696;2022-08-03T20:42:44;5.70;;;2.83;;
25649;SDS011;13505;45.196;5.696;2022-08-03T20:47:35;4.63;;;3.10;;
25649;SDS011;13505;45.196;5.696;2022-08-03T20:52:30;7.40;;;3.45;;
25649;SDS011;13505;45.196;5.696;2022-08-03T20:57:22;6.88;;;2.72;;
25649;SDS011;13505;45.196;5.696;2022-08-03T21:02:13;5.97;;;3.17;;
25649;SDS011;13505;45.196;5.696;2022-08-03T21:07:05;8.45;;;2.83;;
25649;SDS011;13505;45.196;5.696;2022-08-03T21:11:57;11.07;;;3.47;;
25649;SDS011;13505;45.196;5.696;2022-08-03T21:16:52;7.15;;;3.17;;
25649;SDS011;13505;45.196;5.696;2022-08-03T21:21:46;5.07;;;3.00;;
25649;SDS011;13505;45.196;5.696;2022-08-03T21:26:38;8.35;;;3.25;;
25649;SDS011;13505;45.196;5.696;2022-08-03T21:31:29;4.90;;;3.30;;
25649;SDS011;13505;45.196;5.696;2022-08-03T21:36:20;7.45;;;3.15;;
25649;SDS011;13505;45.196;5.696;2022-08-03T21:41:10;3.80;;;2.97;;
25649;SDS011;13505;45.196;5.696;2022-08-03T21:46:01;8.35;;;3.38;;
25649;SDS011;13505;45.196;5.696;2022-08-03T21:50:53;3.97;;;3.20;;
25649;SDS011;13505;45.196;5.696;2022-08-03T21:55:55;6.80;;;3.40;;
